createdAt,value
2022-10-30T00:00:07.117Z,69.93
2022-10-30T00:01:13.411Z,70.09
2022-10-30T00:02:15.016Z,70.03
2022-10-30T00:03:16.753Z,70.09
2022-10-30T00:04:18.342Z,70.12
2022-10-30T00:05:20.892Z,70.08
2022-10-30T00:06:22.412Z,70.10
2022-10-30T00:07:23.894Z,70.21
2022-10-30T00:08:25.846Z,70.69
2022-10-30T00:09:27.288Z,71.03
2022-10-30T00:10:28.748Z,70.96
2022-10-30T00:11:30.304Z,70.85
2022-10-30T00:12:31.747Z,70.74
2022-10-30T00:13:33.187Z,70.76
2022-10-30T00:14:34.705Z,70.60
2022-10-30T00:15:36.314Z,70.55
2022-10-30T00:16:37.794Z,70.46
2022-10-30T00:17:39.340Z,70.48
2022-10-30T00:18:42.267Z,70.46
2022-10-30T00:19:43.852Z,70.40
2022-10-30T00:20:45.338Z,70.43
2022-10-30T00:21:46.815Z,70.46
2022-10-30T00:22:48.280Z,70.47
2022-10-30T00:23:50.360Z,70.55
2022-10-30T00:24:51.834Z,70.58
2022-10-30T00:25:53.291Z,70.58
2022-10-30T00:26:54.825Z,70.76
2022-10-30T00:27:56.426Z,70.81
2022-10-30T00:28:57.901Z,70.76
2022-10-30T00:29:59.372Z,70.88
2022-10-30T00:31:01.343Z,70.93
2022-10-30T00:32:04.138Z,71.02
2022-10-30T00:33:05.670Z,70.84
2022-10-30T00:34:08.320Z,70.90
2022-10-30T00:35:10.856Z,71.02
2022-10-30T00:36:13.685Z,70.85
2022-10-30T00:37:17.376Z,70.97
2022-10-30T00:38:18.823Z,70.91
2022-10-30T00:39:20.408Z,70.79
2022-10-30T00:40:21.891Z,70.77
2022-10-30T00:41:23.582Z,70.77
2022-10-30T00:42:28.440Z,70.76
2022-10-30T00:43:39.861Z,70.79
2022-10-30T00:44:41.422Z,70.79
2022-10-30T00:45:42.897Z,70.70
2022-10-30T00:46:44.413Z,70.71
2022-10-30T00:47:52.769Z,70.76
2022-10-30T00:48:58.275Z,70.73
2022-10-30T00:50:07.979Z,70.63
2022-10-30T00:51:09.600Z,70.70
2022-10-30T00:52:11.089Z,70.74
2022-10-30T00:53:13.853Z,70.67
2022-10-30T00:54:15.904Z,70.47
2022-10-30T00:55:18.457Z,70.68
2022-10-30T00:56:20.472Z,70.58
2022-10-30T00:57:22.333Z,70.67
2022-10-30T00:58:29.166Z,70.49
2022-10-30T00:59:30.858Z,70.45
2022-10-30T01:00:32.354Z,70.38
2022-10-30T01:01:35.286Z,70.41
2022-10-30T01:02:37.304Z,70.62
2022-10-30T01:03:39.650Z,70.84
2022-10-30T01:04:41.154Z,70.65
2022-10-30T01:05:42.923Z,70.76
2022-10-30T01:06:45.459Z,70.71
2022-10-30T01:07:47.006Z,70.91
2022-10-30T01:08:48.595Z,71.08
2022-10-30T01:09:50.278Z,70.96
2022-10-30T01:10:52.022Z,70.98
2022-10-30T01:11:53.625Z,70.79
2022-10-30T01:12:55.144Z,70.81
2022-10-30T01:13:57.568Z,70.80
2022-10-30T01:14:59.055Z,70.87
2022-10-30T01:16:06.105Z,70.91
2022-10-30T01:17:19.705Z,70.88
2022-10-30T01:18:23.942Z,70.78
2022-10-30T01:19:38.632Z,70.94
2022-10-30T01:20:57.618Z,70.85
2022-10-30T01:22:11.188Z,71.06
2022-10-30T01:23:12.854Z,71.18
2022-10-30T01:24:33.876Z,71.31
2022-10-30T01:25:38.556Z,71.29
2022-10-30T01:26:41.306Z,71.28
2022-10-30T01:27:42.789Z,71.38
2022-10-30T01:28:55.369Z,71.43
2022-10-30T01:30:15.253Z,71.40
2022-10-30T01:31:21.023Z,71.40
2022-10-30T01:32:35.020Z,71.45
2022-10-30T01:33:43.717Z,71.58
2022-10-30T01:34:45.267Z,71.55
2022-10-30T01:35:54.034Z,72.01
2022-10-30T01:37:10.612Z,71.78
2022-10-30T01:38:30.922Z,71.76
2022-10-30T01:39:35.719Z,71.74
2022-10-30T01:40:37.228Z,71.65
2022-10-30T01:41:39.657Z,71.73
2022-10-30T01:42:53.942Z,71.85
2022-10-30T01:44:02.533Z,71.84
2022-10-30T01:45:04.785Z,72.28
2022-10-30T01:46:18.513Z,72.34
2022-10-30T01:47:23.051Z,72.35
2022-10-30T01:48:27.433Z,72.57
2022-10-30T01:49:31.797Z,72.62
2022-10-30T01:50:33.948Z,72.72
2022-10-30T01:52:07.819Z,72.98
2022-10-30T01:53:22.986Z,73.62
2022-10-30T01:54:30.440Z,73.61
2022-10-30T01:55:50.380Z,73.97
2022-10-30T01:56:54.744Z,73.86
2022-10-30T01:58:04.252Z,73.80
2022-10-30T01:59:08.752Z,73.79
2022-10-30T02:00:11.290Z,73.67
2022-10-30T02:01:15.709Z,73.67
2022-10-30T02:02:17.597Z,73.54
2022-10-30T02:03:19.381Z,73.40
2022-10-30T02:04:21.069Z,73.34
2022-10-30T02:05:36.685Z,73.49
2022-10-30T02:06:38.222Z,73.23
2022-10-30T02:07:39.873Z,73.12
2022-10-30T02:08:43.377Z,73.15
2022-10-30T02:09:45.090Z,73.12
2022-10-30T02:10:48.733Z,73.01
2022-10-30T02:11:50.448Z,73.00
2022-10-30T02:12:52.308Z,73.01
2022-10-30T02:13:54.322Z,72.95
2022-10-30T02:14:56.875Z,72.87
2022-10-30T02:15:58.435Z,72.71
2022-10-30T02:17:00.784Z,72.73
2022-10-30T02:18:02.472Z,72.78
2022-10-30T02:19:04.555Z,72.71
2022-10-30T02:20:07.005Z,72.64
2022-10-30T02:21:09.037Z,72.88
2022-10-30T02:22:12.594Z,72.76
2022-10-30T02:23:18.898Z,72.71
2022-10-30T02:24:20.489Z,72.65
2022-10-30T02:25:22.037Z,72.73
2022-10-30T02:26:23.593Z,72.66
2022-10-30T02:27:25.130Z,72.85
2022-10-30T02:28:26.623Z,72.85
2022-10-30T02:29:28.184Z,72.65
2022-10-30T02:30:29.805Z,72.65
2022-10-30T02:31:31.416Z,72.72
2022-10-30T02:32:33.041Z,72.61
2022-10-30T02:33:34.651Z,72.59
2022-10-30T02:34:36.868Z,72.54
2022-10-30T02:35:38.390Z,72.49
2022-10-30T02:36:39.991Z,72.64
2022-10-30T02:37:41.498Z,72.70
2022-10-30T02:38:44.132Z,72.65
2022-10-30T02:39:45.660Z,72.53
2022-10-30T02:40:49.822Z,72.48
2022-10-30T02:41:51.337Z,72.35
2022-10-30T02:42:53.477Z,72.41
2022-10-30T02:43:54.949Z,72.33
2022-10-30T02:44:56.545Z,72.36
2022-10-30T02:45:58.166Z,72.41
2022-10-30T02:47:00.119Z,72.52
2022-10-30T02:48:02.669Z,72.35
2022-10-30T02:49:05.559Z,72.33
2022-10-30T02:50:07.559Z,72.38
2022-10-30T02:51:12.229Z,72.56
2022-10-30T02:52:14.416Z,72.46
2022-10-30T02:53:16.908Z,72.41
2022-10-30T02:54:19.625Z,72.44
2022-10-30T02:55:21.300Z,72.48
2022-10-30T02:56:23.755Z,72.58
2022-10-30T02:57:25.262Z,72.45
2022-10-30T02:58:26.763Z,72.55
2022-10-30T02:59:28.260Z,72.47
2022-10-30T03:00:29.798Z,72.69
2022-10-30T03:01:31.571Z,72.82
2022-10-30T03:02:34.508Z,72.79
2022-10-30T03:03:36.275Z,72.69
2022-10-30T03:04:37.880Z,72.68
2022-10-30T03:05:39.425Z,72.77
2022-10-30T03:06:41.031Z,72.90
2022-10-30T03:07:42.506Z,72.84
2022-10-30T03:08:44.093Z,72.95
2022-10-30T03:09:45.688Z,73.00
2022-10-30T03:10:47.277Z,73.09
2022-10-30T03:11:48.832Z,73.07
2022-10-30T03:12:50.391Z,73.70
2022-10-30T03:13:51.906Z,73.74
2022-10-30T03:14:53.449Z,73.68
2022-10-30T03:15:59.455Z,73.51
2022-10-30T03:17:00.956Z,73.50
2022-10-30T03:18:02.557Z,73.46
2022-10-30T03:19:04.207Z,73.30
2022-10-30T03:20:08.057Z,73.46
2022-10-30T03:21:10.096Z,73.40
2022-10-30T03:22:11.899Z,73.21
2022-10-30T03:23:13.386Z,73.19
2022-10-30T03:24:15.009Z,72.95
2022-10-30T03:25:16.630Z,72.97
2022-10-30T03:26:18.686Z,72.82
2022-10-30T03:27:24.828Z,72.70
2022-10-30T03:28:27.513Z,72.62
2022-10-30T03:29:29.849Z,72.57
2022-10-30T03:30:31.469Z,72.56
2022-10-30T03:31:36.119Z,72.43
2022-10-30T03:32:50.806Z,72.47
2022-10-30T03:33:52.275Z,72.29
2022-10-30T03:34:53.847Z,72.13
2022-10-30T03:35:55.824Z,72.19
2022-10-30T03:36:57.401Z,72.06
2022-10-30T03:37:58.854Z,71.93
2022-10-30T03:39:00.386Z,71.84
2022-10-30T03:40:02.651Z,71.77
2022-10-30T03:41:04.597Z,71.69
2022-10-30T03:42:06.161Z,71.87
2022-10-30T03:43:07.748Z,71.84
2022-10-30T03:44:09.228Z,71.75
2022-10-30T03:45:10.897Z,71.64
2022-10-30T03:46:12.569Z,71.69
2022-10-30T03:47:14.183Z,71.61
2022-10-30T03:48:18.744Z,71.64
2022-10-30T03:49:20.340Z,71.56
2022-10-30T03:50:21.866Z,71.80
2022-10-30T03:51:23.422Z,71.78
2022-10-30T03:52:25.286Z,71.56
2022-10-30T03:53:28.439Z,71.59
2022-10-30T03:54:30.123Z,71.67
2022-10-30T03:55:31.698Z,71.43
2022-10-30T03:56:33.526Z,71.56
2022-10-30T03:57:36.890Z,71.61
2022-10-30T03:58:45.852Z,71.60
2022-10-30T03:59:49.385Z,71.44
2022-10-30T04:01:13.695Z,71.73
2022-10-30T04:03:21.002Z,71.99
2022-10-30T04:04:23.106Z,72.01
2022-10-30T04:05:25.211Z,72.07
2022-10-30T04:06:28.735Z,71.96
2022-10-30T04:07:31.110Z,71.99
2022-10-30T04:08:33.478Z,72.13
2022-10-30T04:09:35.222Z,72.01
2022-10-30T04:10:37.262Z,71.97
2022-10-30T04:11:44.952Z,71.96
2022-10-30T04:12:47.970Z,71.84
2022-10-30T04:13:49.724Z,71.74
2022-10-30T04:14:54.326Z,71.63
2022-10-30T04:15:57.862Z,71.76
2022-10-30T04:17:00.623Z,71.56
2022-10-30T04:18:02.552Z,71.72
2022-10-30T04:19:05.270Z,71.67
2022-10-30T04:20:07.298Z,71.83
2022-10-30T04:21:08.830Z,71.98
2022-10-30T04:22:11.975Z,72.32
2022-10-30T04:23:14.498Z,72.13
2022-10-30T04:24:18.753Z,72.11
2022-10-30T04:25:23.180Z,71.83
2022-10-30T04:26:25.635Z,71.80
2022-10-30T04:27:27.081Z,71.76
2022-10-30T04:28:28.672Z,71.75
2022-10-30T04:29:30.218Z,71.69
2022-10-30T04:30:35.343Z,71.66
2022-10-30T04:31:37.011Z,71.73
2022-10-30T04:32:50.211Z,71.45
2022-10-30T04:33:53.091Z,71.60
2022-10-30T04:34:55.922Z,71.44
2022-10-30T04:35:57.612Z,71.76
2022-10-30T04:36:59.420Z,71.61
2022-10-30T04:38:01.672Z,71.56
2022-10-30T04:39:03.882Z,71.60
2022-10-30T04:40:07.350Z,71.50
2022-10-30T04:41:19.133Z,71.50
2022-10-30T04:42:35.160Z,71.48
2022-10-30T04:43:36.838Z,71.54
2022-10-30T04:44:38.341Z,71.50
2022-10-30T04:45:40.044Z,71.42
2022-10-30T04:46:41.658Z,71.58
2022-10-30T04:47:45.073Z,71.36
2022-10-30T04:48:46.706Z,71.43
2022-10-30T04:49:48.868Z,71.22
2022-10-30T04:50:50.954Z,71.19
2022-10-30T04:51:59.168Z,71.17
2022-10-30T04:53:06.851Z,71.20
2022-10-30T04:54:08.348Z,71.24
2022-10-30T04:55:11.851Z,71.06
2022-10-30T04:56:14.024Z,71.10
2022-10-30T04:57:15.536Z,71.14
2022-10-30T04:58:18.058Z,70.97
2022-10-30T04:59:24.125Z,71.07
2022-10-30T05:00:27.717Z,71.13
2022-10-30T05:01:33.547Z,71.20
2022-10-30T05:02:39.582Z,71.40
2022-10-30T05:03:41.399Z,71.32
2022-10-30T05:04:48.450Z,71.41
2022-10-30T05:05:56.409Z,71.46
2022-10-30T05:06:58.245Z,71.46
2022-10-30T05:08:00.414Z,71.38
2022-10-30T05:09:03.735Z,71.51
2022-10-30T05:10:14.633Z,71.41
2022-10-30T05:11:16.229Z,71.57
2022-10-30T05:12:19.578Z,71.39
2022-10-30T05:13:27.470Z,71.43
2022-10-30T05:14:32.935Z,71.37
2022-10-30T05:15:34.473Z,71.58
2022-10-30T05:16:35.990Z,71.60
2022-10-30T05:17:39.252Z,71.55
2022-10-30T05:18:40.819Z,71.61
2022-10-30T05:19:42.362Z,71.54
2022-10-30T05:20:43.840Z,71.39
2022-10-30T05:21:45.411Z,71.51
2022-10-30T05:22:54.370Z,71.44
2022-10-30T05:23:55.925Z,71.51
2022-10-30T05:24:58.275Z,71.30
2022-10-30T05:26:00.262Z,71.39
2022-10-30T05:27:02.057Z,71.42
2022-10-30T05:28:05.280Z,71.24
2022-10-30T05:29:13.234Z,71.29
2022-10-30T05:30:14.744Z,71.24
2022-10-30T05:31:16.385Z,71.25
2022-10-30T05:32:40.807Z,71.28
2022-10-30T05:33:42.377Z,71.15
2022-10-30T05:34:43.860Z,71.01
2022-10-30T05:35:46.254Z,71.14
2022-10-30T05:36:47.758Z,71.38
2022-10-30T05:37:49.897Z,71.39
2022-10-30T05:38:52.019Z,71.31
2022-10-30T05:40:13.748Z,71.64
2022-10-30T05:41:15.369Z,71.74
2022-10-30T05:42:16.860Z,71.75
2022-10-30T05:43:19.767Z,71.78
2022-10-30T05:44:40.520Z,71.82
2022-10-30T05:45:44.024Z,71.78
2022-10-30T05:46:45.660Z,71.83
2022-10-30T05:48:00.971Z,71.68
2022-10-30T05:49:06.433Z,71.54
2022-10-30T05:50:08.303Z,71.69
2022-10-30T05:51:10.612Z,71.77
2022-10-30T05:52:15.297Z,71.65
2022-10-30T05:53:17.069Z,71.48
2022-10-30T05:54:19.129Z,71.47
2022-10-30T05:55:43.644Z,71.57
2022-10-30T05:56:48.614Z,71.28
2022-10-30T05:57:50.718Z,71.29
2022-10-30T05:58:52.552Z,71.17
2022-10-30T05:59:54.061Z,71.04
2022-10-30T06:00:55.531Z,70.94
2022-10-30T06:02:10.945Z,70.81
2022-10-30T06:03:12.727Z,70.83
2022-10-30T06:04:16.085Z,70.78
2022-10-30T06:05:17.934Z,70.85
2022-10-30T06:06:23.411Z,70.89
2022-10-30T06:07:25.194Z,70.79
2022-10-30T06:08:27.148Z,70.88
2022-10-30T06:09:31.651Z,71.02
2022-10-30T06:10:53.672Z,70.72
2022-10-30T06:11:58.653Z,70.74
2022-10-30T06:13:26.773Z,70.88
2022-10-30T06:14:36.021Z,70.84
2022-10-30T06:15:38.818Z,70.72
2022-10-30T06:16:40.279Z,70.77
2022-10-30T06:18:02.371Z,70.55
2022-10-30T06:19:17.647Z,70.59
2022-10-30T06:20:21.874Z,70.79
2022-10-30T06:21:26.145Z,70.94
2022-10-30T06:22:59.415Z,70.88
2022-10-30T06:24:08.285Z,70.86
2022-10-30T06:25:21.180Z,70.97
2022-10-30T06:26:34.054Z,71.11
2022-10-30T06:27:41.147Z,71.17
2022-10-30T06:28:42.688Z,71.10
2022-10-30T06:29:46.088Z,71.19
2022-10-30T06:30:47.681Z,71.44
2022-10-30T06:31:49.301Z,71.44
2022-10-30T06:33:01.843Z,71.36
2022-10-30T06:34:05.398Z,71.38
2022-10-30T06:35:09.150Z,71.43
2022-10-30T06:36:10.870Z,71.57
2022-10-30T06:37:12.448Z,71.68
2022-10-30T06:38:15.323Z,71.95
2022-10-30T06:39:16.826Z,71.98
2022-10-30T06:40:31.311Z,72.00
2022-10-30T06:41:53.035Z,71.83
2022-10-30T06:43:15.891Z,71.85
2022-10-30T06:44:23.233Z,71.81
2022-10-30T06:45:25.100Z,71.92
2022-10-30T06:46:30.511Z,71.84
2022-10-30T06:47:35.522Z,71.91
2022-10-30T06:48:37.588Z,71.73
2022-10-30T06:49:39.043Z,72.00
2022-10-30T06:50:40.663Z,71.76
2022-10-30T06:51:42.697Z,71.84
2022-10-30T06:52:44.303Z,71.86
2022-10-30T06:53:45.829Z,71.96
2022-10-30T06:55:22.513Z,71.96
2022-10-30T06:56:34.497Z,72.05
2022-10-30T06:57:53.729Z,72.10
2022-10-30T06:59:13.495Z,72.44
2022-10-30T07:00:27.954Z,72.29
2022-10-30T07:02:11.245Z,72.78
2022-10-30T07:03:26.655Z,72.95
2022-10-30T07:04:28.519Z,72.90
2022-10-30T07:05:33.282Z,73.02
2022-10-30T07:06:35.748Z,73.12
2022-10-30T07:07:37.192Z,73.35
2022-10-30T07:08:38.694Z,73.33
2022-10-30T07:09:41.426Z,73.40
2022-10-30T07:10:42.889Z,73.52
2022-10-30T07:11:57.050Z,73.56
2022-10-30T07:13:17.474Z,73.72
2022-10-30T07:14:32.273Z,73.76
2022-10-30T07:15:54.153Z,73.73
2022-10-30T07:16:59.984Z,73.90
2022-10-30T07:18:03.789Z,73.73
2022-10-30T07:19:08.084Z,73.75
2022-10-30T07:20:09.881Z,73.43
2022-10-30T07:21:11.356Z,73.57
2022-10-30T07:22:14.076Z,73.20
2022-10-30T07:23:19.161Z,73.06
2022-10-30T07:24:20.745Z,72.90
2022-10-30T07:25:40.776Z,72.73
2022-10-30T07:26:56.069Z,72.19
2022-10-30T07:28:10.859Z,72.22
2022-10-30T07:29:27.297Z,72.32
2022-10-30T07:30:58.491Z,72.24
2022-10-30T07:32:20.434Z,72.26
2022-10-30T07:33:42.801Z,72.05
2022-10-30T07:34:54.457Z,72.12
2022-10-30T07:36:05.548Z,72.26
2022-10-30T07:37:33.235Z,72.47
2022-10-30T07:38:41.118Z,72.97
2022-10-30T07:40:07.460Z,73.24
2022-10-30T07:41:33.324Z,73.38
2022-10-30T07:42:58.230Z,73.51
2022-10-30T07:44:25.335Z,73.54
2022-10-30T07:45:47.984Z,73.54
2022-10-30T07:47:07.559Z,73.23
2022-10-30T07:48:27.612Z,73.37
2022-10-30T07:49:40.674Z,73.51
2022-10-30T07:50:43.285Z,73.13
2022-10-30T07:51:44.767Z,73.17
2022-10-30T07:52:48.329Z,72.30
2022-10-30T07:53:53.462Z,71.70
2022-10-30T07:54:56.885Z,71.09
2022-10-30T07:56:33.216Z,71.44
2022-10-30T07:58:10.258Z,71.42
2022-10-30T07:59:35.115Z,70.87
2022-10-30T08:00:55.393Z,70.50
2022-10-30T08:02:04.430Z,69.89
2022-10-30T08:03:15.309Z,69.21
2022-10-30T08:04:31.919Z,69.13
2022-10-30T08:05:41.471Z,68.49
2022-10-30T08:06:46.482Z,68.16
2022-10-30T08:07:48.253Z,67.92
2022-10-30T08:08:49.873Z,67.61
2022-10-30T08:10:00.873Z,67.49
2022-10-30T08:11:02.328Z,67.22
2022-10-30T08:12:05.071Z,67.50
2022-10-30T08:13:07.014Z,66.82
2022-10-30T08:14:09.206Z,66.91
2022-10-30T08:15:10.934Z,66.85
2022-10-30T08:16:12.957Z,66.69
2022-10-30T08:17:14.592Z,66.71
2022-10-30T08:18:18.051Z,66.85
2022-10-30T08:19:19.573Z,66.47
2022-10-30T08:20:23.500Z,65.70
2022-10-30T08:21:25.708Z,65.39
2022-10-30T08:22:46.610Z,65.26
2022-10-30T08:23:48.093Z,65.29
2022-10-30T08:24:51.794Z,64.95
2022-10-30T08:25:53.522Z,64.37
2022-10-30T08:26:56.977Z,64.42
2022-10-30T08:28:01.885Z,64.00
2022-10-30T08:29:07.239Z,63.47
2022-10-30T08:30:08.893Z,62.71
2022-10-30T08:31:10.460Z,62.54
2022-10-30T08:32:30.496Z,62.43
2022-10-30T08:34:04.449Z,62.12
2022-10-30T08:35:24.682Z,61.64
2022-10-30T08:36:26.380Z,61.18
2022-10-30T08:37:27.858Z,60.78
2022-10-30T08:38:29.454Z,59.24
2022-10-30T08:39:57.262Z,60.14
2022-10-30T08:41:10.171Z,59.84
2022-10-30T08:42:18.602Z,59.42
2022-10-30T08:43:20.694Z,59.35
2022-10-30T08:44:22.313Z,58.72
2022-10-30T08:45:46.871Z,58.31
2022-10-30T08:46:49.705Z,57.56
2022-10-30T08:47:57.256Z,57.89
2022-10-30T08:49:01.500Z,56.55
2022-10-30T08:50:04.515Z,56.84
2022-10-30T08:51:07.234Z,57.37
2022-10-30T08:52:17.376Z,56.76
2022-10-30T08:53:23.570Z,57.51
2022-10-30T08:54:26.774Z,57.62
2022-10-30T08:55:29.572Z,56.72
2022-10-30T08:56:31.668Z,57.03
2022-10-30T08:57:42.235Z,56.36
2022-10-30T08:58:44.115Z,56.02
2022-10-30T08:59:45.827Z,55.95
2022-10-30T09:01:05.517Z,55.86
2022-10-30T09:02:33.262Z,55.43
2022-10-30T09:04:03.895Z,55.17
2022-10-30T09:05:25.470Z,55.33
2022-10-30T09:06:45.576Z,54.68
2022-10-30T09:08:16.009Z,54.88
2022-10-30T09:09:35.792Z,54.12
2022-10-30T09:10:38.303Z,54.66
2022-10-30T09:11:39.979Z,55.04
2022-10-30T09:12:42.231Z,54.61
2022-10-30T09:13:43.693Z,53.94
2022-10-30T09:14:46.415Z,53.79
2022-10-30T09:15:47.979Z,53.92
2022-10-30T09:16:49.547Z,53.62
2022-10-30T09:18:03.485Z,53.59
2022-10-30T09:19:05.398Z,53.10
2022-10-30T09:20:07.000Z,53.66
2022-10-30T09:21:10.773Z,53.71
2022-10-30T09:22:18.016Z,53.68
2022-10-30T09:23:19.844Z,53.02
2022-10-30T09:24:25.586Z,52.46
2022-10-30T09:25:27.172Z,51.05
2022-10-30T09:26:49.058Z,51.62
2022-10-30T09:27:59.006Z,51.48
2022-10-30T09:29:03.961Z,51.14
2022-10-30T09:30:31.061Z,50.22
2022-10-30T09:31:35.359Z,50.29
2022-10-30T09:32:38.892Z,50.43
2022-10-30T09:33:44.534Z,50.69
2022-10-30T09:35:05.252Z,50.87
2022-10-30T09:36:11.676Z,50.85
2022-10-30T09:37:13.300Z,49.49
2022-10-30T09:38:17.426Z,48.50
2022-10-30T09:39:19.295Z,48.93
2022-10-30T09:40:29.644Z,48.21
2022-10-30T09:41:40.431Z,48.58
2022-10-30T09:42:46.031Z,49.28
2022-10-30T09:43:59.184Z,49.10
2022-10-30T09:45:27.935Z,48.57
2022-10-30T09:46:45.785Z,49.08
2022-10-30T09:47:53.264Z,49.08
2022-10-30T09:49:05.382Z,49.73
2022-10-30T09:50:14.361Z,49.19
2022-10-30T09:51:32.636Z,49.47
2022-10-30T09:52:40.318Z,49.01
2022-10-30T09:53:45.294Z,48.23
2022-10-30T09:55:01.364Z,47.64
2022-10-30T09:56:03.174Z,48.19
2022-10-30T09:57:18.082Z,47.76
2022-10-30T09:58:22.775Z,47.81
2022-10-30T09:59:34.505Z,48.42
2022-10-30T10:00:39.998Z,47.47
2022-10-30T10:01:52.200Z,47.87
2022-10-30T10:02:53.869Z,48.20
2022-10-30T10:03:58.529Z,47.63
2022-10-30T10:05:26.807Z,47.60
2022-10-30T10:07:07.730Z,47.69
2022-10-30T10:08:45.520Z,47.57
2022-10-30T10:10:06.979Z,47.69
2022-10-30T10:11:31.496Z,48.02
2022-10-30T10:12:33.073Z,48.37
2022-10-30T10:13:39.078Z,48.33
2022-10-30T10:14:44.407Z,48.36
2022-10-30T10:15:50.092Z,47.73
2022-10-30T10:16:52.261Z,48.96
2022-10-30T10:17:53.958Z,49.14
2022-10-30T10:19:04.527Z,47.93
2022-10-30T10:20:06.682Z,47.82
2022-10-30T10:21:14.293Z,47.65
2022-10-30T10:22:18.649Z,47.36
2022-10-30T10:23:34.163Z,47.18
2022-10-30T10:24:39.374Z,47.25
2022-10-30T10:25:41.481Z,47.60
2022-10-30T10:26:52.716Z,47.92
2022-10-30T10:27:54.382Z,48.16
2022-10-30T10:28:55.882Z,47.10
2022-10-30T10:29:57.456Z,46.73
2022-10-30T10:31:11.878Z,46.67
2022-10-30T10:32:28.788Z,47.16
2022-10-30T10:33:36.718Z,47.65
2022-10-30T10:34:50.221Z,47.43
2022-10-30T10:36:10.309Z,46.88
2022-10-30T10:37:22.150Z,46.61
2022-10-30T10:38:49.576Z,46.58
2022-10-30T10:39:51.192Z,46.29
2022-10-30T10:41:15.299Z,46.80
2022-10-30T10:42:16.898Z,46.89
2022-10-30T10:43:37.480Z,46.42
2022-10-30T10:44:42.458Z,46.29
2022-10-30T10:45:46.938Z,46.36
2022-10-30T10:47:16.944Z,46.81
2022-10-30T10:48:53.699Z,46.77
2022-10-30T10:49:57.290Z,46.76
2022-10-30T10:51:01.447Z,46.65
2022-10-30T10:52:04.566Z,46.58
2022-10-30T10:53:07.459Z,46.35
2022-10-30T10:54:11.384Z,46.21
2022-10-30T10:55:17.009Z,45.96
2022-10-30T10:56:18.613Z,46.02
2022-10-30T10:57:27.424Z,46.19
2022-10-30T10:58:31.915Z,46.92
2022-10-30T10:59:33.348Z,46.71
2022-10-30T11:00:34.806Z,46.02
2022-10-30T11:01:39.842Z,45.85
2022-10-30T11:02:42.293Z,46.75
2022-10-30T11:03:52.936Z,47.49
2022-10-30T11:04:54.414Z,47.53
2022-10-30T11:06:13.937Z,47.50
2022-10-30T11:07:18.338Z,48.19
2022-10-30T11:08:21.133Z,48.10
2022-10-30T11:09:23.130Z,48.67
2022-10-30T11:10:26.260Z,48.98
2022-10-30T11:11:27.759Z,49.11
2022-10-30T11:12:33.632Z,49.75
2022-10-30T11:13:38.568Z,50.13
2022-10-30T11:14:39.996Z,50.16
2022-10-30T11:15:47.286Z,50.37
2022-10-30T11:16:48.802Z,50.63
2022-10-30T11:17:56.241Z,51.01
2022-10-30T11:19:01.365Z,51.65
2022-10-30T11:20:03.330Z,52.12
2022-10-30T11:21:16.501Z,51.63
2022-10-30T11:22:36.565Z,51.88
2022-10-30T11:23:42.097Z,51.68
2022-10-30T11:24:43.533Z,51.23
2022-10-30T11:25:45.049Z,52.04
2022-10-30T11:26:46.504Z,51.66
2022-10-30T11:27:48.564Z,52.15
2022-10-30T11:28:50.009Z,52.38
2022-10-30T11:30:11.723Z,53.05
2022-10-30T11:31:20.465Z,53.50
2022-10-30T11:32:22.914Z,53.98
2022-10-30T11:33:28.589Z,53.88
2022-10-30T11:34:36.352Z,53.89
2022-10-30T11:35:41.978Z,53.96
2022-10-30T11:36:43.890Z,53.58
2022-10-30T11:37:46.075Z,53.80
2022-10-30T11:38:47.562Z,53.41
2022-10-30T11:39:54.743Z,53.46
2022-10-30T11:40:56.187Z,52.74
2022-10-30T11:42:16.629Z,53.42
2022-10-30T11:43:20.010Z,54.22
2022-10-30T11:44:22.258Z,54.24
2022-10-30T11:45:29.398Z,54.52
2022-10-30T11:46:30.859Z,54.43
2022-10-30T11:48:43.505Z,54.39
2022-10-30T11:49:50.957Z,54.66
2022-10-30T11:50:52.483Z,55.09
2022-10-30T11:51:54.093Z,55.20
2022-10-30T11:52:56.254Z,55.33
2022-10-30T11:53:57.713Z,55.33
2022-10-30T11:55:03.578Z,55.29
2022-10-30T11:56:05.350Z,55.09
2022-10-30T11:57:13.122Z,54.96
2022-10-30T11:58:21.099Z,54.97
2022-10-30T11:59:23.018Z,54.86
2022-10-30T12:00:25.668Z,54.98
2022-10-30T12:01:27.175Z,54.93
2022-10-30T12:02:29.637Z,54.19
2022-10-30T12:03:35.217Z,53.46
2022-10-30T12:04:36.665Z,53.58
2022-10-30T12:05:43.691Z,53.46
2022-10-30T12:06:46.716Z,53.71
2022-10-30T12:07:48.194Z,53.97
2022-10-30T12:08:59.132Z,53.90
2022-10-30T12:10:01.848Z,53.95
2022-10-30T12:11:04.128Z,53.97
2022-10-30T12:12:10.534Z,53.93
2022-10-30T12:13:15.414Z,53.97
2022-10-30T12:14:19.683Z,54.46
2022-10-30T12:15:21.843Z,54.26
2022-10-30T12:16:23.312Z,54.04
2022-10-30T12:17:24.763Z,54.64
2022-10-30T12:19:33.262Z,54.49
2022-10-30T12:20:36.595Z,54.72
2022-10-30T12:21:39.753Z,54.78
2022-10-30T12:22:41.775Z,54.90
2022-10-30T12:23:43.235Z,54.79
2022-10-30T12:24:44.776Z,54.46
2022-10-30T12:25:49.228Z,54.03
2022-10-30T12:26:51.315Z,54.48
2022-10-30T12:27:58.396Z,54.48
2022-10-30T12:29:00.835Z,54.83
2022-10-30T12:30:11.837Z,53.95
2022-10-30T12:31:14.141Z,54.38
2022-10-30T12:32:17.280Z,53.75
2022-10-30T12:33:26.034Z,54.24
2022-10-30T12:34:29.645Z,54.30
2022-10-30T12:35:41.139Z,54.52
2022-10-30T12:36:44.977Z,54.67
2022-10-30T12:37:46.449Z,54.05
2022-10-30T12:38:50.086Z,54.12
2022-10-30T12:40:00.423Z,54.22
2022-10-30T12:41:07.650Z,54.04
2022-10-30T12:42:11.517Z,54.29
2022-10-30T12:43:20.001Z,54.47
2022-10-30T12:44:22.250Z,54.20
2022-10-30T12:45:23.693Z,54.03
2022-10-30T12:46:27.514Z,54.03
2022-10-30T12:47:28.999Z,54.18
2022-10-30T12:48:32.270Z,54.28
2022-10-30T12:49:39.955Z,54.12
2022-10-30T12:50:49.246Z,54.32
2022-10-30T12:52:08.987Z,54.22
2022-10-30T12:53:19.582Z,54.04
2022-10-30T12:54:41.321Z,54.32
2022-10-30T12:55:46.352Z,54.48
2022-10-30T12:56:48.285Z,54.24
2022-10-30T12:57:55.720Z,54.10
2022-10-30T12:59:17.481Z,54.22
2022-10-30T13:00:19.083Z,54.22
2022-10-30T13:01:26.722Z,54.10
2022-10-30T13:02:28.857Z,54.50
2022-10-30T13:03:33.020Z,54.38
2022-10-30T13:04:37.082Z,54.15
2022-10-30T13:05:56.920Z,54.17
2022-10-30T13:07:03.068Z,54.43
2022-10-30T13:08:25.443Z,54.54
2022-10-30T13:09:28.092Z,54.42
2022-10-30T13:10:38.291Z,54.27
2022-10-30T13:11:45.781Z,54.15
2022-10-30T13:12:47.648Z,54.43
2022-10-30T13:13:49.485Z,54.82
2022-10-30T13:14:52.484Z,54.84
2022-10-30T13:15:54.684Z,55.02
2022-10-30T13:16:56.186Z,54.98
2022-10-30T13:17:58.876Z,54.85
2022-10-30T13:19:00.704Z,54.71
2022-10-30T13:20:02.172Z,54.75
2022-10-30T13:21:20.397Z,54.82
2022-10-30T13:22:21.987Z,54.63
2022-10-30T13:23:25.856Z,54.75
2022-10-30T13:24:44.777Z,54.84
2022-10-30T13:25:56.778Z,54.76
2022-10-30T13:27:00.765Z,55.14
2022-10-30T13:28:06.900Z,55.01
2022-10-30T13:29:22.653Z,55.37
2022-10-30T13:30:25.594Z,55.42
2022-10-30T13:31:30.084Z,55.46
2022-10-30T13:32:35.473Z,55.41
2022-10-30T13:33:39.997Z,55.38
2022-10-30T13:35:00.608Z,55.38
2022-10-30T13:36:02.071Z,55.10
2022-10-30T13:37:05.738Z,55.28
2022-10-30T13:38:07.174Z,54.97
2022-10-30T13:39:11.486Z,55.06
2022-10-30T13:40:14.447Z,55.08
2022-10-30T13:41:35.033Z,55.23
2022-10-30T13:42:45.564Z,55.43
2022-10-30T13:43:47.020Z,55.52
2022-10-30T13:44:54.640Z,54.99
2022-10-30T13:46:08.094Z,55.10
2022-10-30T13:47:12.423Z,55.17
2022-10-30T13:48:13.955Z,54.86
2022-10-30T13:49:31.997Z,54.83
2022-10-30T13:50:33.412Z,54.47
2022-10-30T13:51:37.930Z,54.47
2022-10-30T13:52:40.143Z,54.52
2022-10-30T13:53:42.444Z,54.36
2022-10-30T13:54:59.380Z,54.30
2022-10-30T13:56:00.964Z,54.16
2022-10-30T13:57:08.809Z,54.14
2022-10-30T13:58:18.125Z,54.29
2022-10-30T13:59:19.633Z,54.51
2022-10-30T14:00:21.793Z,54.60
2022-10-30T14:01:28.091Z,54.41
2022-10-30T14:02:45.071Z,54.65
2022-10-30T14:03:56.716Z,54.95
2022-10-30T14:05:07.235Z,55.15
2022-10-30T14:06:08.825Z,55.11
2022-10-30T14:07:29.065Z,55.15
2022-10-30T14:08:33.447Z,55.33
2022-10-30T14:09:43.210Z,55.50
2022-10-30T14:10:48.324Z,55.62
2022-10-30T14:11:49.809Z,55.48
2022-10-30T14:12:57.518Z,55.58
2022-10-30T14:14:06.171Z,55.91
2022-10-30T14:15:11.529Z,55.85
2022-10-30T14:16:31.637Z,55.75
2022-10-30T14:17:33.137Z,55.62